Time,TemperatureF,DewpointF,PressureIn,WindDirection,WindDirectionDegrees,WindSpeedMPH,WindSpeedGustMPH,Humidity,HourlyPrecipIn,Conditions,Clouds,dailyrainin,SoftwareType,DateUTC
2013-01-01 00:00:00,43.6,31.5,30.31,SSW,202,0.0,3.0,62,0.00,,,0.00,VWS V14.01,2013-01-01 05:00:00,
2013-01-01 00:30:00,43.8,31.6,30.28,SSW,202,0.0,1.0,62,0.00,,,0.00,VWS V14.01,2013-01-01 05:30:00,
2013-01-01 01:00:00,43.6,31.0,30.27,SSW,202,0.0,2.0,61,0.00,,,0.00,VWS V14.01,2013-01-01 06:00:00,
2013-01-01 01:30:00,44.0,32.2,30.26,SW,225,0.0,3.0,63,0.00,,,0.00,VWS V14.01,2013-01-01 06:30:00,
2013-01-01 02:00:00,43.9,32.5,30.25,SW,225,0.0,0.0,64,0.00,,,0.00,VWS V14.01,2013-01-01 07:00:00,
2013-01-01 02:30:00,43.8,33.9,30.25,SW,225,0.0,0.0,68,0.00,,,0.00,VWS V14.01,2013-01-01 07:30:00,
2013-01-01 03:00:00,43.2,33.4,30.24,WSW,248,0.0,1.0,68,0.00,,,0.00,VWS V14.01,2013-01-01 08:00:00,
2013-01-01 03:30:00,42.9,33.4,30.24,WSW,248,0.0,0.0,69,0.00,,,0.00,VWS V14.01,2013-01-01 08:30:00,
2013-01-01 04:00:00,42.8,34.1,30.25,WSW,248,0.0,1.0,71,0.00,,,0.00,VWS V14.01,2013-01-01 09:00:00,
2013-01-01 04:30:00,42.7,34.0,30.24,WSW,248,0.0,0.0,71,0.00,,,0.00,VWS V14.01,2013-01-01 09:30:00,
2013-01-01 05:00:00,42.5,33.8,30.24,WSW,248,0.0,0.0,71,0.00,,,0.00,VWS V14.01,2013-01-01 10:00:00,
2013-01-01 05:30:00,42.4,33.0,30.25,WSW,248,0.0,0.0,69,0.00,,,0.00,VWS V14.01,2013-01-01 10:30:00,
2013-01-01 06:00:00,42.7,34.3,30.24,WSW,248,0.0,0.0,72,0.00,,,0.00,VWS V14.01,2013-01-01 11:00:00,
2013-01-01 06:30:00,42.6,35.2,30.24,WSW,248,0.0,0.0,75,0.00,,,0.00,VWS V14.01,2013-01-01 11:30:00,
2013-01-01 07:00:00,42.5,35.5,30.26,WSW,248,0.0,0.0,76,0.00,,,0.00,VWS V14.01,2013-01-01 12:00:00,
2013-01-01 07:30:00,42.4,36.4,30.26,WSW,248,0.0,0.0,79,0.00,,,0.00,VWS V14.01,2013-01-01 12:30:00,
2013-01-01 08:00:00,42.2,35.2,30.25,South,180,0.0,3.0,76,0.00,,,0.00,VWS V14.01,2013-01-01 13:00:00,
2013-01-01 08:30:00,43.3,35.9,30.25,South,180,0.0,4.0,75,0.00,,,0.00,VWS V14.01,2013-01-01 13:30:00,
2013-01-01 09:00:00,43.5,38.4,30.26,South,180,0.0,0.0,82,0.00,,,0.00,VWS V14.01,2013-01-01 14:00:00,
2013-01-01 09:30:00,44.0,38.9,30.25,SW,225,0.0,4.0,82,0.00,,,0.00,VWS V14.01,2013-01-01 14:30:00,
2013-01-01 10:00:00,43.9,38.8,30.25,SW,225,0.0,4.0,82,0.01,,,0.01,VWS V14.01,2013-01-01 15:00:00,
2013-01-01 10:30:00,44.1,39.9,30.22,SW,225,1.0,7.0,85,0.01,,,0.01,VWS V14.01,2013-01-01 15:30:00,
2013-01-01 11:00:00,44.9,40.7,30.22,SW,225,1.0,7.0,85,0.01,,,0.01,VWS V14.01,2013-01-01 16:00:00,
2013-01-01 11:30:00,45.4,41.2,30.18,SW,225,2.0,14.0,85,0.00,,,0.01,VWS V14.01,2013-01-01 16:30:00,
2013-01-01 12:00:00,45.6,42.3,30.17,SW,225,2.0,10.0,88,0.00,,,0.01,VWS V14.01,2013-01-01 17:00:00,
2013-01-01 12:30:00,46.0,43.0,30.15,SSW,202,1.0,9.0,89,0.00,,,0.01,VWS V14.01,2013-01-01 17:30:00,
2013-01-01 13:00:00,46.2,43.1,30.16,SW,225,0.0,6.0,89,0.00,,,0.01,VWS V14.01,2013-01-01 18:00:00,
2013-01-01 13:30:00,46.7,44.2,30.17,NW,315,0.0,6.0,91,0.01,,,0.02,VWS V14.01,2013-01-01 18:30:00,
2013-01-01 14:00:00,46.6,44.4,30.13,SW,225,2.0,9.0,92,0.01,,,0.02,VWS V14.01,2013-01-01 19:00:00,
2013-01-01 14:30:00,47.0,45.1,30.12,SSW,202,1.0,7.0,93,0.02,,,0.03,VWS V14.01,2013-01-01 19:30:00,
2013-01-01 15:00:00,47.8,46.2,30.12,South,180,1.0,5.0,94,0.02,,,0.04,VWS V14.01,2013-01-01 20:00:00,
2013-01-01 15:30:00,48.1,46.5,30.11,SW,225,1.0,11.0,94,0.04,,,0.06,VWS V14.01,2013-01-01 20:30:00,
2013-01-01 16:00:00,48.3,46.9,30.13,SW,225,1.0,7.0,95,0.04,,,0.07,VWS V14.01,2013-01-01 21:00:00,
2013-01-01 16:30:00,48.2,46.8,30.14,NNE,22,0.0,4.0,95,0.03,,,0.07,VWS V14.01,2013-01-01 21:30:00,
2013-01-01 17:00:00,47.9,46.5,30.15,NNW,338,0.0,3.0,95,0.03,,,0.09,VWS V14.01,2013-01-01 22:00:00,
2013-01-01 17:30:00,47.8,46.4,30.15,NNW,338,0.0,3.0,95,0.03,,,0.10,VWS V14.01,2013-01-01 22:30:00,
2013-01-01 18:00:00,47.8,46.4,30.16,SSW,202,0.0,4.0,95,0.04,,,0.11,VWS V14.01,2013-01-01 23:00:00,
2013-01-01 18:30:00,48.1,47.0,30.15,SSW,202,0.0,6.0,96,0.03,,,0.12,VWS V14.01,2013-01-01 23:30:00,
2013-01-01 19:00:00,48.0,46.9,30.16,SSW,202,0.0,2.0,96,0.02,,,0.12,VWS V14.01,2013-01-02 00:00:00,
2013-01-01 19:30:00,48.0,46.9,30.16,SSW,202,0.0,4.0,96,0.02,,,0.13,VWS V14.01,2013-01-02 00:30:00,
2013-01-01 20:00:00,48.0,46.9,30.16,SSW,202,0.0,2.0,96,0.02,,,0.14,VWS V14.01,2013-01-02 01:00:00,
2013-01-01 20:30:00,48.0,46.9,30.16,SSW,202,0.0,3.0,96,0.03,,,0.15,VWS V14.01,2013-01-02 01:30:00,
2013-01-01 21:00:00,47.9,46.8,30.18,NNW,338,0.0,4.0,96,0.04,,,0.17,VWS V14.01,2013-01-02 02:00:00,
2013-01-01 21:30:00,48.1,47.0,30.17,NNW,338,0.0,1.0,96,0.04,,,0.18,VWS V14.01,2013-01-02 02:30:00,
2013-01-01 22:00:00,48.2,47.4,30.15,NNW,338,0.0,2.0,97,0.04,,,0.19,VWS V14.01,2013-01-02 03:00:00,
2013-01-01 22:30:00,48.1,47.0,30.16,NNW,338,0.0,0.0,96,0.02,,,0.19,VWS V14.01,2013-01-02 03:30:00,
2013-01-01 23:00:00,47.9,47.1,30.16,NNW,338,0.0,0.0,97,0.02,,,0.20,VWS V14.01,2013-01-02 04:00:00,
2013-01-01 23:30:00,47.7,46.9,30.14,NNW,338,0.0,0.0,97,0.02,,,0.21,VWS V14.01,2013-01-02 04:30:00,